Latest Weather Observations for Nuriootpa

IDS60901

Issued at 9:11 am CST Tuesday 30 August 2016 (issued every 10 minutes, with the page automatically refreshed every 10 minutes)

About weather observations | Map of Adelaide area stations | Latest observations for Adelaide area | Other Formats
Station Details ID: 023373 Name: NURIOOTPA PIRSA Lat: -34.48 Lon: 139.01 Height: 275.0 m
Data from the previous 72 hours. | See also: Recent months at Nuriootpa
Date/Time
CST
Temp
°C
App
Temp
°C
Dew
Point
°C
Rel
Hum
%
Delta-T
°C
Wind Press
QNH
hPa
Press
MSL
hPa
Rain since
9am
mm
Dir  Spd
km/h
Gust
km/h
Spd
kts
Gust
kts
30/09:00am 12.1 11.4 11.5 96 0.3 NNE 6 9 3 5 1013.4 1013.7 6.4
30/08:30am 11.5 10.2 11.1 97 0.2 N 9 13 5 7 1013.3 1013.6 6.4
30/08:00am 11.3 9.9 10.9 97 0.2 NNE 9 15 5 8 1013.2 1013.5 6.0
30/07:30am 11.4 9.6 11.0 97 0.2 NNE 11 17 6 9 1012.8 1013.0 5.2
30/07:00am 11.6 9.3 10.6 94 0.5 N 13 17 7 9 1012.6 1012.8 4.6
30/06:30am 12.1 9.7 10.2 88 1.0 NNE 13 19 7 10 1012.6 1012.8 3.8
30/06:00am 12.0 10.0 10.3 89 0.9 NNE 11 15 6 8 1012.6 1012.8 3.8
30/05:30am 11.8 9.5 10.3 90 0.8 NE 13 22 7 12 1012.6 1012.8 3.8
30/05:00am 11.6 9.2 10.1 90 0.8 NE 13 17 7 9 1012.1 1012.3 3.8
30/04:30am 11.6 8.4 10.1 90 0.8 NNE 17 26 9 14 1012.5 1012.7 3.8
30/04:00am 11.1 9.1 10.3 95 0.4 NE 11 15 6 8 1013.0 1013.3 3.6
30/03:30am 11.1 9.1 10.1 94 0.5 NE 11 17 6 9 1013.2 1013.5 3.4
30/03:00am 11.1 7.6 10.1 94 0.5 NE 19 26 10 14 1013.0 1013.3 3.2
30/02:30am 11.1 7.3 9.9 92 0.6 NE 20 32 11 17 1013.0 1013.3 3.2
30/02:00am 11.0 7.4 10.0 93 0.5 NE 19 26 10 14 1014.0 1014.3 3.2
30/01:30am 10.9 7.3 9.9 93 0.5 NE 19 26 10 14 1014.0 1014.3 3.0
30/01:00am 11.0 7.2 9.8 92 0.6 NE 20 30 11 16 1013.8 1014.1 3.0
30/12:30am 10.9 6.4 9.9 93 0.5 NE 24 37 13 20 1014.0 1014.3 3.0
30/12:00am 11.5 4.9 10.0 90 0.8 NE 35 50 19 27 1013.4 1013.7 3.0
 
Date/Time
CST
Temp
°C
App
Temp
°C
Dew
Point
°C
Rel
Hum
%
Delta-T
°C
Wind Press
QNH
hPa
Press
MSL
hPa
Rain since
9am
mm
Dir  Spd
km/h
Gust
km/h
Spd
kts
Gust
kts
29/11:30pm 11.6 5.6 10.1 90 0.8 NE 32 46 17 25 1013.7 1014.0 2.6
29/11:00pm 11.9 5.2 9.6 86 1.2 NNE 35 54 19 29 1014.0 1014.3 1.8
29/10:30pm 11.9 4.8 9.4 85 1.3 NNE 37 67 20 36 1013.4 1013.7 1.6
29/10:00pm 12.0 6.2 9.5 85 1.3 NE 30 50 16 27 1013.5 1013.8 1.4
29/09:59pm 11.9 6.5 9.6 86 1.2 NE 28 48 15 26 1013.6 1013.9 1.4
29/09:30pm 11.8 7.3 9.9 88 1.0 NE 24 39 13 21 1014.4 1014.6 1.4
29/09:00pm 11.9 7.4 10.0 88 1.0 NE 24 35 13 19 1013.9 1014.2 1.4
29/08:30pm 12.0 8.0 10.3 89 0.9 NE 22 28 12 15 1014.4 1014.6 1.4
29/08:00pm 12.1 8.1 10.4 89 0.9 NE 22 30 12 16 1014.9 1015.1 1.4
29/07:30pm 12.2 8.7 10.3 88 1.0 NE 19 26 10 14 1014.7 1014.9 1.4
29/07:00pm 12.5 8.4 10.0 85 1.3 NE 22 32 12 17 1014.9 1015.1 1.2
29/06:30pm 12.8 8.5 9.3 79 1.8 NNE 22 33 12 18 1014.5 1014.7 1.0
29/06:00pm 12.6 7.9 9.3 80 1.7 NE 24 33 13 18 1014.0 1014.3 1.0
29/05:30pm 13.0 10.4 9.5 79 1.8 NE 13 20 7 11 1014.1 1014.4 0.6
29/05:00pm 13.5 9.9 8.4 71 2.6 NE 17 24 9 13 1013.8 1014.1 0.4
29/04:30pm 14.6 9.7 6.7 59 3.9 NNE 22 35 12 19 1013.4 1013.7 0.2
29/04:00pm 15.1 10.5 6.4 56 4.3 NE 20 30 11 16 1012.7 1012.9 0.0
29/03:30pm 14.9 10.6 7.1 59 3.9 NNE 19 32 10 17 1012.9 1013.1 0.0
29/03:00pm 17.1 12.0 4.1 42 6.2 NNE 20 33 11 18 1012.9 1013.1 0.0
29/02:30pm 17.3 11.0 3.5 39 6.5 NNE 26 35 14 19 1012.9 1013.1 0.0
29/02:00pm 17.7 11.7 5.5 44 6.0 NE 26 39 14 21 1012.5 1012.7 0.0
29/01:30pm 17.5 10.3 3.2 38 6.7 NNE 30 41 16 22 1013.6 1013.9 0.0
29/01:00pm 17.9 12.2 4.7 41 6.4 NNE 24 37 13 20 1014.0 1014.3 0.0
29/12:30pm 17.5 12.1 4.7 42 6.2 NE 22 33 12 18 1014.7 1014.9 0.0
29/12:00pm 17.2 11.6 5.6 46 5.7 NE 24 35 13 19 1014.8 1015.0 0.0
29/11:30am 15.1 10.0 5.8 53 4.5 NE 22 35 12 19 1015.3 1015.5 0.0
29/11:00am 14.7 9.0 5.0 52 4.6 NE 24 35 13 19 1015.9 1016.1 0.0
29/10:30am 13.3 8.7 5.5 59 3.7 ENE 19 28 10 15 1016.0 1016.3 0.0
29/10:00am 13.3 10.2 5.5 59 3.7 ENE 11 17 6 9 1016.3 1016.6 0.0
29/09:30am 11.9 8.2 4.2 59 3.5 ENE 13 19 7 10 1017.1 1017.4 0.0
29/09:00am 11.0 8.1 4.9 66 2.8 NE 9 15 5 8 1017.5 1017.8 1.6
29/08:30am 11.4 6.8 3.9 60 3.4 NNE 17 20 9 11 1017.6 1017.9 1.6
29/08:00am 11.0 7.2 3.9 61 3.2 ENE 13 17 7 9 1017.3 1017.6 1.4
29/07:30am 11.2 6.1 2.8 56 3.7 NE 19 26 10 14 1016.1 1016.4 1.4
29/07:00am 10.6 5.8 2.8 58 3.4 ENE 17 20 9 11 1016.2 1016.5 1.4
29/06:30am 10.4 5.3 2.9 59 3.3 ENE 19 22 10 12 1016.0 1016.3 1.4
29/06:00am 10.3 6.0 3.3 62 3.1 NE 15 22 8 12 1016.1 1016.4 1.2
29/05:30am 10.3 7.1 3.3 62 3.1 ENE 9 20 5 11 1015.9 1016.1 1.2
29/05:00am 10.8 7.6 2.8 57 3.5 ENE 9 13 5 7 1015.3 1015.5 1.2
29/04:30am 11.1 6.3 2.4 55 3.8 NE 17 28 9 15 1015.3 1015.5 1.2
29/04:00am 9.6 6.5 5.7 76 1.8 ENE 11 13 6 7 1015.4 1015.6 1.2
29/03:30am 9.3 6.9 7.2 87 1.0 ENE 9 13 5 7 1015.8 1016.0 1.2
29/03:00am 9.2 6.7 6.7 84 1.2 SE 9 13 5 7 1016.0 1016.3 1.0
29/02:30am 11.3 8.5 2.9 56 3.7 ENE 7 11 4 6 1016.4 1016.7 0.0
29/02:00am 11.4 8.1 2.5 54 3.9 ENE 9 11 5 6 1016.7 1017.0 0.0
29/01:30am 12.2 7.5 0.9 46 4.8 NE 15 20 8 11 1016.6 1016.9 0.0
29/01:00am 12.5 7.7 0.4 43 5.1 ENE 15 20 8 11 1016.6 1016.9 0.0
29/12:30am 13.3 8.1 0.0 40 5.6 NE 17 24 9 13 1016.3 1016.6 0.0
29/12:00am 13.9 8.0 -1.1 35 6.2 NE 20 30 11 16 1016.2 1016.5 0.0
 
Date/Time
CST
Temp
°C
App
Temp
°C
Dew
Point
°C
Rel
Hum
%
Delta-T
°C
Wind Press
QNH
hPa
Press
MSL
hPa
Rain since
9am
mm
Dir  Spd
km/h
Gust
km/h
Spd
kts
Gust
kts
28/11:30pm 13.8 8.5 -0.9 36 6.1 NE 17 22 9 12 1016.3 1016.6 0.0
28/11:00pm 13.0 7.8 -0.1 40 5.5 NE 17 22 9 12 1016.4 1016.7 0.0
28/10:30pm 13.2 7.6 -0.1 40 5.6 ENE 19 26 10 14 1016.6 1016.9 0.0
28/10:00pm 13.5 7.9 -0.3 38 5.8 ENE 19 24 10 13 1016.5 1016.8 0.0
28/09:30pm 13.3 8.1 0.4 41 5.5 ENE 17 22 9 12 1016.5 1016.8 0.0
28/09:00pm 12.8 8.5 1.2 45 5.0 NE 13 17 7 9 1016.5 1016.8 0.0
28/08:30pm 12.8 8.6 1.5 46 4.9 NE 13 19 7 10 1016.1 1016.4 0.0
28/08:00pm 12.8 8.1 1.2 45 5.0 NE 15 19 8 10 1016.1 1016.4 0.0
28/07:30pm 12.7 8.1 1.7 47 4.8 ENE 15 20 8 11 1015.9 1016.1 0.0
28/07:00pm 12.8 8.7 2.1 48 4.7 ENE 13 17 7 9 1015.9 1016.1 0.0
28/06:30pm 13.5 9.3 1.9 45 5.1 NE 13 19 7 10 1015.6 1015.8 0.0
28/06:00pm 14.4 10.4 2.7 45 5.3 NE 13 19 7 10 1015.1 1015.3 0.0
28/05:30pm 15.9 11.0 1.9 39 6.3 NE 17 24 9 13 1014.6 1014.8 0.0
28/05:00pm 16.9 11.6 1.6 35 6.9 NE 19 28 10 15 1014.0 1014.3 0.0
28/04:30pm 17.5 11.1 1.0 33 7.4 NE 24 35 13 19 1014.3 1014.5 0.0
28/04:00pm 17.8 11.7 0.5 31 7.7 NNE 22 35 12 19 1014.6 1014.8 0.0
28/03:30pm 17.6 10.6 -0.3 29 7.8 NNE 26 35 14 19 1014.8 1015.0 0.0
28/03:00pm 18.1 12.0 0.3 30 7.9 NNE 22 35 12 19 1014.8 1015.0 0.0
28/02:30pm 18.4 12.0 1.2 31 7.8 NNE 24 33 13 18 1015.0 1015.2 0.0
28/02:00pm 18.5 12.4 3.0 35 7.3 NNE 24 33 13 18 1015.2 1015.4 0.0
28/01:30pm 18.1 12.4 2.9 36 7.1 NNE 22 32 12 17 1015.8 1016.0 0.0
28/01:00pm 17.6 11.6 3.3 38 6.7 NNE 24 33 13 18 1016.4 1016.7 0.0
28/12:30pm 16.5 11.2 2.8 40 6.3 NNE 20 32 11 17 1016.9 1017.2 0.0
28/12:00pm 17.3 12.2 2.9 38 6.7 NNE 19 30 10 16 1017.5 1017.8 0.0
28/11:30am 16.9 11.2 2.8 39 6.5 NNE 22 33 12 18 1017.9 1018.2 0.0
28/11:00am 16.4 10.7 2.7 40 6.3 NNE 22 33 12 18 1018.1 1018.3 0.0
28/10:30am 15.6 10.1 2.0 40 6.1 NNE 20 32 11 17 1018.3 1018.5 0.0
28/10:00am 15.6 9.5 0.7 36 6.5 NNE 22 35 12 19 1018.6 1018.8 0.0
28/09:30am 15.3 10.1 2.5 42 5.8 NNE 19 28 10 15 1018.7 1018.9 0.0
28/09:00am 14.1 9.7 2.8 46 5.1 NE 15 22 8 12 1018.7 1018.9 0.2
28/08:30am 12.4 8.1 3.3 54 4.1 ENE 15 19 8 10 1018.7 1018.9 0.2
28/08:00am 9.8 6.1 2.1 58 3.3 ENE 11 17 6 9 1018.9 1019.1 0.2
28/07:30am 8.2 4.4 2.0 65 2.6 NE 11 13 6 7 1018.9 1019.1 0.2
28/07:00am 5.3 1.9 1.6 77 1.5 ENE 9 13 5 7 1018.5 1018.7 0.2
28/06:30am 4.6 1.2 1.6 81 1.2 ENE 9 11 5 6 1018.3 1018.5 0.2
28/06:00am 4.6 1.2 1.9 83 1.1 ENE 9 11 5 6 1018.3 1018.5 0.2
28/05:30am 4.6 1.6 2.1 84 1.0 ENE 7 9 4 5 1018.1 1018.3 0.2
28/05:00am 5.2 1.9 2.3 81 1.2 NE 9 9 5 5 1017.7 1018.0 0.2
28/04:30am 5.0 1.8 2.8 86 0.9 ENE 9 11 5 6 1017.5 1017.8 0.2
28/04:00am 5.3 2.5 3.2 86 0.9 NE 7 9 4 5 1017.5 1017.8 0.2
28/03:30am 5.6 2.9 3.5 86 0.9 ENE 7 9 4 5 1017.7 1018.0 0.2
28/03:00am 5.7 3.1 3.3 84 1.0 NE 6 6 3 3 1018.4 1018.6 0.2
28/02:30am 5.6 3.1 3.5 86 0.9 ENE 6 7 3 4 1018.7 1018.9 0.2
28/02:00am 5.9 3.3 4.0 88 0.8 NE 7 9 4 5 1018.9 1019.1 0.2
28/01:30am 6.7 4.2 3.9 82 1.2 NE 6 7 3 4 1019.2 1019.5 0.2
28/01:00am 7.1 4.1 3.9 80 1.4 NE 9 11 5 6 1019.1 1019.4 0.2
28/12:30am 6.8 3.9 4.5 85 1.0 NE 9 11 5 6 1019.0 1019.2 0.2
28/12:00am 6.6 4.1 4.6 87 0.9 NE 7 7 4 4 1019.1 1019.4 0.2
 
Date/Time
CST
Temp
°C
App
Temp
°C
Dew
Point
°C
Rel
Hum
%
Delta-T
°C
Wind Press
QNH
hPa
Press
MSL
hPa
Rain since
9am
mm
Dir  Spd
km/h
Gust
km/h
Spd
kts
Gust
kts
27/11:30pm 7.0 4.4 4.3 83 1.2 NNE 7 9 4 5 1019.1 1019.4 0.2
27/11:00pm 7.0 4.5 4.5 84 1.1 NE 7 11 4 6 1019.0 1019.2 0.2
27/10:30pm 7.0 4.5 4.5 84 1.1 NE 7 9 4 5 1019.3 1019.6 0.2
27/10:00pm 7.7 5.2 4.5 80 1.4 NE 7 9 4 5 1019.5 1019.8 0.2
27/09:30pm 8.7 6.1 4.2 73 2.0 NE 7 7 4 4 1019.6 1019.9 0.2
27/09:00pm 8.9 6.3 4.4 73 2.0 NE 7 9 4 5 1019.9 1020.2 0.2
27/08:30pm 9.2 6.6 4.3 71 2.2 NNE 7 9 4 5 1020.0 1020.3 0.2
27/08:00pm 9.6 6.7 4.5 70 2.3 NE 9 13 5 7 1019.5 1019.8 0.2
27/07:30pm 9.8 6.9 4.7 70 2.3 ENE 9 11 5 6 1019.8 1020.1 0.2
27/07:00pm 10.3 7.8 4.8 69 2.5 NE 7 9 4 5 1019.7 1020.0 0.2
27/06:30pm 11.9 9.1 3.4 56 3.8 N 7 11 4 6 1019.4 1019.7 0.2
27/06:00pm 13.0 10.2 3.0 50 4.5 N 7 11 4 6 1019.0 1019.2 0.2
27/05:30pm 13.4 10.2 3.0 49 4.7 NNW 9 15 5 8 1018.8 1019.0 0.2
27/05:00pm 14.2 9.6 1.4 42 5.6 NW 15 22 8 12 1018.8 1019.0 0.2
27/04:30pm 15.5 11.0 1.9 40 6.1 NW 15 26 8 14 1018.8 1019.0 0.2
27/04:00pm 15.4 9.6 0.1 35 6.6 NW 20 32 11 17 1018.9 1019.1 0.2
27/03:30pm 15.6 9.1 0.0 34 6.7 WNW 24 33 13 18 1019.1 1019.4 0.2
27/03:00pm 15.6 9.3 1.7 39 6.2 NW 24 37 13 20 1019.1 1019.4 0.0
27/02:30pm 15.3 9.4 1.5 39 6.1 NW 22 35 12 19 1019.4 1019.7 0.0
27/02:00pm 15.0 9.1 1.4 39 6.0 NW 22 32 12 17 1019.9 1020.2 0.0
27/01:30pm 14.7 8.2 0.6 38 6.1 WNW 24 35 13 19 1020.1 1020.4 0.0
27/01:00pm 14.8 7.9 0.4 37 6.2 NW 26 41 14 22 1020.4 1020.7 0.0
27/12:30pm 14.3 7.5 0.6 39 5.9 NW 26 39 14 21 1021.0 1021.3 0.0
27/12:00pm 14.9 8.4 0.2 36 6.3 NW 24 37 13 20 1021.5 1021.8 0.0
27/11:30am 14.5 8.4 0.2 37 6.1 NW 22 33 12 18 1022.0 1022.2 0.0
27/11:00am 14.2 9.0 2.3 44 5.3 NW 19 30 10 16 1022.0 1022.2 0.0
27/10:30am 13.7 9.5 3.6 50 4.6 NNW 15 24 8 13 1022.2 1022.5 0.0
27/10:00am 12.6 7.5 3.2 52 4.2 NNW 19 26 10 14 1022.5 1022.8 0.0
27/09:30am 11.0 5.9 3.3 59 3.4 N 19 26 10 14 1022.6 1022.9 0.0

Latest Capital City Observations: Canberra | Sydney | Melbourne | Brisbane | Adelaide | Perth | Hobart | Darwin

Other Formats:

Comma delimited format used in spreadsheet applications
http://www.bom.gov.au/fwo/IDS60901/IDS60901.94681.axf

JavaScript Object Notation format (JSON) in row-major order
http://www.bom.gov.au/fwo/IDS60901/IDS60901.94681.json